createdAt,value
2023-01-29T00:10:33.052Z,-0.86
2023-01-29T00:21:48.025Z,-0.88
2023-01-29T00:51:03.337Z,-0.73
2023-01-29T01:09:57.499Z,-0.73
2023-01-29T01:21:51.778Z,-0.72
2023-01-29T01:25:49.382Z,-0.73
2023-01-29T01:29:19.778Z,-0.75
2023-01-29T01:32:55.095Z,-0.74
2023-01-29T01:36:25.790Z,-0.75
2023-01-29T01:39:54.204Z,-0.75
2023-01-29T01:43:10.084Z,-0.74
2023-01-29T02:06:03.212Z,-0.91
2023-01-29T02:30:03.369Z,-1.07
2023-01-29T02:38:29.948Z,-1.12
2023-01-29T02:48:42.768Z,-1.14
2023-01-29T03:05:05.231Z,-1.14
2023-01-29T03:30:34.337Z,-1.05
2023-01-29T03:34:18.086Z,-1.07
2023-01-29T03:38:05.043Z,-1.07
2023-01-29T03:41:39.872Z,-1.07
2023-01-29T03:56:45.063Z,-1.05
2023-01-29T04:07:00.362Z,-1.09
2023-01-29T04:22:34.107Z,-1.14
2023-01-29T04:45:25.762Z,-1.19
2023-01-29T04:48:32.573Z,-1.20
2023-01-29T04:51:32.786Z,-1.22
2023-01-29T04:54:19.635Z,-1.24
2023-01-29T04:57:29.500Z,-1.25
2023-01-29T05:00:32.601Z,-1.25
2023-01-29T05:03:03.294Z,-1.24
2023-01-29T05:05:32.213Z,-1.22
2023-01-29T05:08:01.040Z,-1.23
2023-01-29T05:10:30.712Z,-1.25
2023-01-29T05:13:03.782Z,-1.27
2023-01-29T05:15:49.498Z,-1.25
2023-01-29T05:18:18.232Z,-1.24
2023-01-29T05:20:48.957Z,-1.23
2023-01-29T05:23:20.074Z,-1.24
2023-01-29T05:25:51.976Z,-1.24
2023-01-29T05:28:20.626Z,-1.26
2023-01-29T05:30:56.469Z,-1.27
2023-01-29T05:33:27.594Z,-1.28
2023-01-29T05:35:59.873Z,-1.30
2023-01-29T05:38:28.611Z,-1.32
2023-01-29T05:40:59.994Z,-1.33
2023-01-29T05:43:28.773Z,-1.34
2023-01-29T05:46:02.341Z,-1.34
2023-01-29T05:48:32.539Z,-1.36
2023-01-29T05:51:05.914Z,-1.42
2023-01-29T05:53:34.992Z,-1.48
2023-01-29T05:56:05.653Z,-1.55
2023-01-29T05:58:35.173Z,-1.62
2023-01-29T06:01:17.892Z,-1.68
2023-01-29T06:03:47.046Z,-1.76
2023-01-29T06:06:16.074Z,-1.81
2023-01-29T06:08:44.794Z,-1.86
2023-01-29T06:11:15.492Z,-1.89
2023-01-29T06:13:45.758Z,-1.93
2023-01-29T06:16:14.932Z,-1.99
2023-01-29T06:18:44.135Z,-2.03
2023-01-29T06:21:14.555Z,-2.07
2023-01-29T06:23:43.274Z,-2.11
2023-01-29T06:26:15.534Z,-2.14
2023-01-29T06:28:46.261Z,-2.18
2023-01-29T06:31:35.289Z,-2.22
2023-01-29T06:34:04.176Z,-2.21
2023-01-29T06:36:32.868Z,-2.21
2023-01-29T06:39:01.744Z,-2.19
2023-01-29T06:41:30.442Z,-2.15
2023-01-29T06:43:59.267Z,-2.13
2023-01-29T06:46:28.149Z,-2.11
2023-01-29T06:49:00.901Z,-2.08
2023-01-29T06:51:29.735Z,-2.05
2023-01-29T06:53:58.657Z,-2.00
2023-01-29T06:56:27.620Z,-1.97
2023-01-29T06:58:56.318Z,-1.91
2023-01-29T07:01:35.739Z,-1.87
2023-01-29T07:04:05.215Z,-1.81
2023-01-29T07:06:34.504Z,-1.76
2023-01-29T07:09:04.827Z,-1.74
2023-01-29T07:11:35.896Z,-1.68
2023-01-29T07:14:05.172Z,-1.65
2023-01-29T07:16:34.515Z,-1.61
2023-01-29T07:19:03.330Z,-1.56
2023-01-29T07:21:32.011Z,-1.52
2023-01-29T07:24:00.640Z,-1.48
2023-01-29T07:26:29.535Z,-1.43
2023-01-29T07:28:58.142Z,-1.38
2023-01-29T07:31:26.859Z,-1.32
2023-01-29T07:33:56.207Z,-1.30
2023-01-29T07:36:24.887Z,-1.28
2023-01-29T07:38:53.631Z,-1.27
2023-01-29T07:41:22.716Z,-1.24
2023-01-29T07:43:51.478Z,-1.21
2023-01-29T07:46:20.195Z,-1.20
2023-01-29T07:48:48.753Z,-1.21
2023-01-29T07:51:18.775Z,-1.20
2023-01-29T07:53:48.113Z,-1.18
2023-01-29T07:56:16.905Z,-1.13
2023-01-29T07:58:46.111Z,-1.06
2023-01-29T08:01:14.984Z,-1.02
2023-01-29T08:03:43.699Z,-0.98
2023-01-29T08:06:12.284Z,-0.93
2023-01-29T08:08:40.873Z,-0.87
2023-01-29T08:11:09.691Z,-0.77
2023-01-29T08:13:38.371Z,-0.73
2023-01-29T08:16:07.710Z,-0.65
2023-01-29T08:18:38.281Z,-0.61
2023-01-29T08:21:06.913Z,-0.60
2023-01-29T08:23:35.557Z,-0.62
2023-01-29T08:26:04.714Z,-0.58
2023-01-29T08:28:34.013Z,-0.54
2023-01-29T08:31:02.730Z,-0.48
2023-01-29T08:33:39.147Z,-0.39
2023-01-29T08:36:09.860Z,-0.32
2023-01-29T08:38:38.775Z,-0.29
2023-01-29T08:41:08.614Z,-0.23
2023-01-29T08:43:37.450Z,-0.22
2023-01-29T08:46:07.867Z,-0.17
2023-01-29T08:48:36.787Z,-0.11
2023-01-29T08:51:05.814Z,-0.05
2023-01-29T08:53:34.492Z,-0.03
2023-01-29T08:56:03.215Z,0.05
2023-01-29T08:58:31.897Z,0.06
2023-01-29T09:01:09.636Z,0.03
2023-01-29T09:03:41.270Z,-0.00
2023-01-29T09:06:12.900Z,0.00
2023-01-29T09:08:41.905Z,0.00
2023-01-29T09:11:11.600Z,0.04
2023-01-29T09:13:40.314Z,0.13
2023-01-29T09:16:10.733Z,0.24
2023-01-29T09:18:39.474Z,0.33
2023-01-29T09:21:08.624Z,0.53
2023-01-29T09:23:37.458Z,0.64
2023-01-29T09:26:08.692Z,0.72
2023-01-29T09:28:37.373Z,0.85
2023-01-29T09:31:06.301Z,0.93
2023-01-29T09:33:35.132Z,1.03
2023-01-29T09:36:04.912Z,1.14
2023-01-29T09:38:33.537Z,1.32
2023-01-29T09:41:29.387Z,1.43
2023-01-29T09:44:07.456Z,1.55
2023-01-29T09:46:49.518Z,1.58
2023-01-29T09:49:36.072Z,1.70
2023-01-29T09:52:35.513Z,1.78
2023-01-29T09:55:12.671Z,1.82
2023-01-29T09:58:28.812Z,1.78
2023-01-29T10:01:34.758Z,1.78
2023-01-29T10:04:46.952Z,1.70
2023-01-29T10:07:53.294Z,1.75
2023-01-29T10:10:51.977Z,1.69
2023-01-29T10:13:42.015Z,1.71
2023-01-29T10:16:51.998Z,1.84
2023-01-29T10:19:45.089Z,1.81
2023-01-29T10:22:46.246Z,1.68
2023-01-29T10:25:20.919Z,1.65
2023-01-29T10:27:57.556Z,1.67
2023-01-29T10:30:34.317Z,1.67
2023-01-29T10:33:06.815Z,1.65
2023-01-29T10:35:43.174Z,1.63
2023-01-29T10:38:44.820Z,1.63
2023-01-29T10:41:31.312Z,1.64
2023-01-29T10:44:28.253Z,1.63
2023-01-29T10:47:30.687Z,1.57
2023-01-29T10:50:33.752Z,1.56
2023-01-29T10:53:27.933Z,1.60
2023-01-29T10:56:23.693Z,1.58
2023-01-29T10:58:59.792Z,1.64
2023-01-29T11:01:28.673Z,1.70
2023-01-29T11:04:05.234Z,1.77
2023-01-29T11:06:37.399Z,1.82
2023-01-29T11:12:17.351Z,1.94
2023-01-29T11:15:00.833Z,1.95
2023-01-29T11:17:29.547Z,1.95
2023-01-29T11:19:58.205Z,1.89
2023-01-29T11:22:30.484Z,1.87
2023-01-29T11:25:20.817Z,1.85
2023-01-29T11:28:03.332Z,1.82
2023-01-29T11:30:39.429Z,1.74
2023-01-29T11:33:20.956Z,1.60
2023-01-29T11:35:49.996Z,1.55
2023-01-29T11:38:27.553Z,1.50
2023-01-29T11:41:22.698Z,1.37
2023-01-29T11:43:51.415Z,1.29
2023-01-29T11:46:20.315Z,1.21
2023-01-29T11:48:58.943Z,1.19
2023-01-29T11:51:37.971Z,1.19
2023-01-29T11:54:16.074Z,1.16
2023-01-29T11:56:48.743Z,1.12
2023-01-29T11:59:30.596Z,1.12
2023-01-29T12:02:24.155Z,1.12
2023-01-29T12:04:57.037Z,1.13
2023-01-29T12:07:26.352Z,1.17
2023-01-29T12:09:59.181Z,1.20
2023-01-29T12:12:40.491Z,1.26
2023-01-29T12:15:09.099Z,1.34
2023-01-29T12:17:40.293Z,1.39
2023-01-29T12:20:21.380Z,1.44
2023-01-29T12:23:09.054Z,1.51
2023-01-29T12:26:05.751Z,1.56
2023-01-29T12:29:14.212Z,1.61
2023-01-29T12:32:33.043Z,1.66
2023-01-29T12:35:25.736Z,1.69
2023-01-29T12:38:03.738Z,1.70
2023-01-29T12:40:44.375Z,1.70
2023-01-29T12:44:05.153Z,1.69
2023-01-29T12:46:50.849Z,1.75
2023-01-29T12:49:28.315Z,1.82
2023-01-29T12:52:21.535Z,1.86
2023-01-29T12:55:01.525Z,1.88
2023-01-29T12:57:57.588Z,1.94
2023-01-29T13:00:30.854Z,1.96
2023-01-29T13:03:08.661Z,1.98
2023-01-29T13:05:57.795Z,2.00
2023-01-29T13:08:46.000Z,2.07
2023-01-29T13:11:28.658Z,2.08
2023-01-29T13:14:07.054Z,2.07
2023-01-29T13:16:44.331Z,2.06
2023-01-29T13:19:29.093Z,2.06
2023-01-29T13:22:03.155Z,2.06
2023-01-29T13:24:42.334Z,2.06
2023-01-29T13:27:30.711Z,2.11
2023-01-29T13:30:01.005Z,2.12
2023-01-29T13:32:36.676Z,2.10
2023-01-29T13:35:15.609Z,2.07
2023-01-29T13:38:03.771Z,2.02
2023-01-29T13:40:35.000Z,2.04
2023-01-29T13:43:04.396Z,2.04
2023-01-29T13:45:46.337Z,1.99
2023-01-29T13:48:29.665Z,1.93
2023-01-29T13:51:03.879Z,1.94
2023-01-29T13:53:41.593Z,1.95
2023-01-29T13:56:33.772Z,1.97
2023-01-29T13:59:07.036Z,1.93
2023-01-29T14:01:47.846Z,1.90
2023-01-29T14:04:19.354Z,1.86
2023-01-29T14:06:52.265Z,1.81
2023-01-29T14:09:39.303Z,1.81
2023-01-29T14:12:39.538Z,1.81
2023-01-29T14:15:32.187Z,1.80
2023-01-29T14:18:20.361Z,1.79
2023-01-29T14:20:49.961Z,1.77
2023-01-29T14:23:38.164Z,1.75
2023-01-29T14:26:22.842Z,1.78
2023-01-29T14:29:02.671Z,1.79
2023-01-29T14:31:51.044Z,1.79
2023-01-29T14:34:42.960Z,1.78
2023-01-29T14:37:39.771Z,1.72
2023-01-29T14:40:11.495Z,1.66
2023-01-29T14:42:47.755Z,1.67
2023-01-29T14:45:35.224Z,1.68
2023-01-29T14:48:10.301Z,1.67
2023-01-29T14:50:47.567Z,1.66
2023-01-29T14:53:23.572Z,1.65
2023-01-29T14:56:16.114Z,1.62
2023-01-29T14:59:21.190Z,1.59
2023-01-29T15:01:56.994Z,1.54
2023-01-29T15:04:40.673Z,1.52
2023-01-29T15:07:12.138Z,1.49
2023-01-29T15:10:22.029Z,1.47
2023-01-29T15:13:05.224Z,1.46
2023-01-29T15:16:09.622Z,1.46
2023-01-29T15:18:42.482Z,1.48
2023-01-29T15:21:20.053Z,1.46
2023-01-29T15:24:03.626Z,1.46
2023-01-29T15:26:33.814Z,1.45
2023-01-29T15:29:04.700Z,1.43
2023-01-29T15:31:35.820Z,1.40
2023-01-29T15:34:08.040Z,1.39
2023-01-29T15:36:40.381Z,1.37
2023-01-29T15:39:24.495Z,1.35
2023-01-29T15:42:14.643Z,1.31
2023-01-29T15:44:47.018Z,1.21
2023-01-29T15:47:16.517Z,1.15
2023-01-29T15:49:47.995Z,1.07
2023-01-29T15:52:24.574Z,1.04
2023-01-29T15:54:57.306Z,1.00
2023-01-29T15:57:37.986Z,0.98
2023-01-29T16:00:19.156Z,0.97
2023-01-29T16:02:48.894Z,0.95
2023-01-29T16:05:32.559Z,0.94
2023-01-29T16:08:02.237Z,0.91
2023-01-29T16:10:34.054Z,0.90
2023-01-29T16:13:04.409Z,0.90
2023-01-29T16:15:41.217Z,0.89
2023-01-29T16:18:30.233Z,0.87
2023-01-29T16:21:07.020Z,0.85
2023-01-29T16:23:54.855Z,0.86
2023-01-29T16:26:35.414Z,0.83
2023-01-29T16:29:17.497Z,0.81
2023-01-29T16:31:50.883Z,0.81
2023-01-29T16:34:42.898Z,0.77
2023-01-29T16:37:37.026Z,0.74
2023-01-29T16:40:33.457Z,0.72
2023-01-29T16:43:31.248Z,0.76
2023-01-29T16:46:16.239Z,0.86
2023-01-29T16:48:45.227Z,0.92
2023-01-29T16:51:37.897Z,0.86
2023-01-29T16:54:19.403Z,0.84
2023-01-29T16:56:52.393Z,0.81
2023-01-29T16:59:33.936Z,0.79
2023-01-29T17:02:04.814Z,0.79
2023-01-29T17:04:34.467Z,0.79
2023-01-29T17:07:03.298Z,0.76
2023-01-29T17:09:38.362Z,0.75
2023-01-29T17:12:20.275Z,0.73
2023-01-29T17:15:00.814Z,0.72
2023-01-29T17:17:36.504Z,0.71
2023-01-29T17:20:16.839Z,0.72
2023-01-29T17:22:47.307Z,0.77
2023-01-29T17:25:17.425Z,0.80
2023-01-29T17:27:51.890Z,0.85
2023-01-29T17:30:24.775Z,0.88
2023-01-29T17:32:54.133Z,0.90
2023-01-29T17:35:23.295Z,0.90
2023-01-29T17:37:52.041Z,0.92
2023-01-29T17:40:40.934Z,0.95
2023-01-29T17:43:12.004Z,1.00
2023-01-29T17:45:41.194Z,1.01
2023-01-29T17:48:25.486Z,1.02
2023-01-29T17:50:59.261Z,1.03
2023-01-29T17:53:43.312Z,1.04
2023-01-29T17:56:33.004Z,1.07
2023-01-29T17:59:02.272Z,1.08
2023-01-29T18:01:31.046Z,1.10
2023-01-29T18:03:59.719Z,1.11
2023-01-29T18:06:30.453Z,1.11
2023-01-29T18:08:59.259Z,1.11
2023-01-29T18:11:29.076Z,1.12
2023-01-29T18:13:58.655Z,1.12
2023-01-29T18:16:36.976Z,1.12
2023-01-29T18:19:22.709Z,1.11
2023-01-29T18:21:51.663Z,1.11
2023-01-29T18:24:21.753Z,1.13
2023-01-29T18:26:51.632Z,1.12
2023-01-29T18:29:20.354Z,1.12
2023-01-29T18:31:50.188Z,1.11
2023-01-29T18:34:19.476Z,1.10
2023-01-29T18:36:48.521Z,1.11
2023-01-29T18:39:17.714Z,1.13
2023-01-29T18:41:46.354Z,1.14
2023-01-29T18:44:15.059Z,1.13
2023-01-29T18:46:43.861Z,1.11
2023-01-29T18:49:12.594Z,1.11
2023-01-29T18:51:41.353Z,1.10
2023-01-29T18:54:13.482Z,1.10
2023-01-29T18:57:06.166Z,1.09
2023-01-29T18:59:31.507Z,1.09
2023-01-29T19:02:00.359Z,1.10
2023-01-29T19:04:29.234Z,1.09
2023-01-29T19:06:57.934Z,1.10
2023-01-29T19:09:26.844Z,1.12
2023-01-29T19:11:55.618Z,1.14
2023-01-29T19:14:24.396Z,1.16
2023-01-29T19:16:53.151Z,1.18
2023-01-29T19:19:22.036Z,1.17
2023-01-29T19:21:55.914Z,1.17
2023-01-29T19:24:24.706Z,1.18
2023-01-29T19:26:54.084Z,1.20
2023-01-29T19:29:23.019Z,1.20
2023-01-29T19:31:51.754Z,1.19
2023-01-29T19:34:20.474Z,1.15
2023-01-29T19:36:49.215Z,1.07
2023-01-29T19:39:17.980Z,1.00
2023-01-29T19:41:46.715Z,0.94
2023-01-29T19:44:15.434Z,0.89
2023-01-29T19:46:44.257Z,0.85
2023-01-29T20:10:47.758Z,0.23
2023-01-29T20:13:16.730Z,0.18
2023-01-29T20:15:50.497Z,0.16
2023-01-29T20:18:20.343Z,0.13
2023-01-29T20:20:53.822Z,0.12
2023-01-29T20:23:36.560Z,0.12
2023-01-29T20:26:15.915Z,0.10
2023-01-29T20:47:33.843Z,-0.28
2023-01-29T20:50:09.021Z,-0.31
2023-01-29T20:52:40.245Z,-0.35
2023-01-29T20:55:12.557Z,-0.39
2023-01-29T20:57:41.618Z,-0.44
2023-01-29T21:00:15.865Z,-0.51
2023-01-29T21:02:46.233Z,-0.57
2023-01-29T21:05:16.885Z,-0.67
2023-01-29T21:07:45.660Z,-0.74
2023-01-29T21:10:15.151Z,-0.80
2023-01-29T21:12:44.082Z,-0.84
2023-01-29T21:15:12.979Z,-0.88
2023-01-29T21:17:41.797Z,-0.93
2023-01-29T21:20:11.338Z,-0.97
2023-01-29T21:22:42.957Z,-0.99
2023-01-29T21:25:12.197Z,-0.99
2023-01-29T21:27:40.977Z,-0.96
2023-01-29T21:30:10.636Z,-0.91
2023-01-29T21:32:39.395Z,-0.86
2023-01-29T21:35:08.856Z,-0.81
2023-01-29T21:37:38.316Z,-0.75
2023-01-29T21:40:09.096Z,-0.70
2023-01-29T21:42:56.460Z,-0.65
2023-01-29T21:45:25.839Z,-0.61
2023-01-29T21:47:55.267Z,-0.62
2023-01-29T21:50:24.477Z,-0.62
2023-01-29T21:52:54.249Z,-0.65
2023-01-29T21:55:23.056Z,-0.67
2023-01-29T21:57:51.838Z,-0.71
2023-01-29T22:00:20.776Z,-0.76
2023-01-29T22:02:50.644Z,-0.80
2023-01-29T22:05:20.439Z,-0.81
2023-01-29T22:07:50.360Z,-0.82
2023-01-29T22:10:20.545Z,-0.84
2023-01-29T22:12:49.747Z,-0.86
2023-01-29T22:15:18.722Z,-0.84
2023-01-29T22:17:47.401Z,-0.81
2023-01-29T22:20:16.656Z,-0.77
2023-01-29T22:22:45.686Z,-0.73
2023-01-29T22:25:20.224Z,-0.68
2023-01-29T22:27:48.922Z,-0.63
2023-01-29T22:30:18.449Z,-0.57
2023-01-29T22:32:47.229Z,-0.49
2023-01-29T22:35:16.101Z,-0.45
2023-01-29T22:37:45.485Z,-0.41
2023-01-29T22:40:14.711Z,-0.36
2023-01-29T22:42:43.507Z,-0.32
2023-01-29T22:45:12.799Z,-0.29
2023-01-29T22:47:41.547Z,-0.25
2023-01-29T22:50:11.345Z,-0.22
2023-01-29T22:52:42.864Z,-0.18
2023-01-29T22:55:13.690Z,-0.15
2023-01-29T22:57:42.375Z,-0.13
2023-01-29T23:01:32.035Z,-0.12
2023-01-29T23:06:00.982Z,-0.12
2023-01-29T23:20:28.505Z,-0.09
2023-01-29T23:24:24.607Z,-0.06
2023-01-29T23:28:05.144Z,-0.02
2023-01-29T23:31:56.796Z,0.00
2023-01-29T23:35:28.501Z,0.01
2023-01-29T23:39:48.373Z,-0.00
2023-01-29T23:44:00.427Z,0.00
2023-01-29T23:47:31.454Z,0.01
2023-01-29T23:51:02.160Z,-0.02
2023-01-29T23:54:32.445Z,-0.00
2023-01-29T23:58:02.206Z,-0.02
